sensor_id;sensor_type;location;lat;lon;timestamp;pressure;altitude;pressure_sealevel;temperature;humidity
37132;BME280;23035;50.032;21.978;2023-03-04T00:02:48;65081.84;;;-0.92;100.00
37132;BME280;23035;50.032;21.978;2023-03-04T00:07:54;65109.47;;;-0.65;100.00
37132;BME280;23035;50.032;21.978;2023-03-04T00:12:58;65121.25;;;-0.51;100.00
37132;BME280;23035;50.032;21.978;2023-03-04T00:18:03;65108.84;;;-0.56;100.00
37132;BME280;23035;50.032;21.978;2023-03-04T00:23:09;65085.69;;;-0.85;100.00
37132;BME280;23035;50.032;21.978;2023-03-04T00:28:14;65090.34;;;-0.83;100.00
37132;BME280;23035;50.032;21.978;2023-03-04T00:33:18;65069.44;;;-0.96;100.00
37132;BME280;23035;50.032;21.978;2023-03-04T00:38:24;65078.66;;;-0.95;100.00
37132;BME280;23035;50.032;21.978;2023-03-04T00:43:29;65082.47;;;-0.89;100.00
37132;BME280;23035;50.032;21.978;2023-03-04T00:48:34;65092.03;;;-0.79;100.00
37132;BME280;23035;50.032;21.978;2023-03-04T00:53:41;65106.28;;;-0.68;100.00
37132;BME280;23035;50.032;21.978;2023-03-04T00:58:45;65133.91;;;-0.42;100.00
37132;BME280;23035;50.032;21.978;2023-03-04T01:03:50;65069.72;;;-1.01;100.00
37132;BME280;23035;50.032;21.978;2023-03-04T01:08:56;65070.78;;;-1.00;100.00
37132;BME280;23035;50.032;21.978;2023-03-04T01:14:00;65069.19;;;-1.01;100.00
37132;BME280;23035;50.032;21.978;2023-03-04T01:19:05;65097.34;;;-0.74;100.00
37132;BME280;23035;50.032;21.978;2023-03-04T01:24:12;65096.31;;;-0.75;100.00
37132;BME280;23035;50.032;21.978;2023-03-04T01:29:16;65126.06;;;-0.47;100.00
37132;BME280;23035;50.032;21.978;2023-03-04T01:34:21;65101.19;;;-0.68;100.00
37132;BME280;23035;50.032;21.978;2023-03-04T01:39:27;65138.38;;;-0.33;100.00
37132;BME280;23035;50.032;21.978;2023-03-04T01:44:31;65110.53;;;-0.64;100.00
37132;BME280;23035;50.032;21.978;2023-03-04T01:49:36;65125.63;;;-0.45;100.00
37132;BME280;23035;50.032;21.978;2023-03-04T01:54:42;65104.81;;;-0.67;100.00
37132;BME280;23035;50.032;21.978;2023-03-04T01:59:46;65095.25;;;-0.76;100.00
37132;BME280;23035;50.032;21.978;2023-03-04T02:05:16;65129.78;;;-0.43;100.00
37132;BME280;23035;50.032;21.978;2023-03-04T02:10:22;65102.56;;;-0.72;100.00
37132;BME280;23035;50.032;21.978;2023-03-04T02:15:27;65136.88;;;-0.32;100.00
37132;BME280;23035;50.032;21.978;2023-03-04T02:20:37;65112.34;;;-0.57;100.00
37132;BME280;23035;50.032;21.978;2023-03-04T02:25:49;65101.19;;;-0.68;100.00
37132;BME280;23035;50.032;21.978;2023-03-04T02:30:57;65094.19;;;-0.77;100.00
37132;BME280;23035;50.032;21.978;2023-03-04T02:36:02;65131.78;;;-0.44;100.00
37132;BME280;23035;50.032;21.978;2023-03-04T02:41:11;65119.25;;;-0.51;100.00
37132;BME280;23035;50.032;21.978;2023-03-04T02:46:18;65129.78;;;-0.43;100.00
37132;BME280;23035;50.032;21.978;2023-03-04T02:51:23;65120.84;;;-0.49;100.00
37132;BME280;23035;50.032;21.978;2023-03-04T02:56:28;65083.97;;;-0.77;100.00
37132;BME280;23035;50.032;21.978;2023-03-04T03:01:34;65102.66;;;-0.69;100.00
37132;BME280;23035;50.032;21.978;2023-03-04T03:06:38;65076.75;;;-0.92;100.00
37132;BME280;23035;50.032;21.978;2023-03-04T03:11:43;65087.16;;;-0.87;100.00
37132;BME280;23035;50.032;21.978;2023-03-04T03:16:50;65082.06;;;-0.87;100.00
37132;BME280;23035;50.032;21.978;2023-03-04T03:21:55;65096.31;;;-0.75;100.00
37132;BME280;23035;50.032;21.978;2023-03-04T03:26:59;65148.38;;;-0.25;100.00
37132;BME280;23035;50.032;21.978;2023-03-04T03:32:07;65107.56;;;-0.62;100.00
37132;BME280;23035;50.032;21.978;2023-03-04T03:37:11;65107.88;;;-0.67;100.00
37132;BME280;23035;50.032;21.978;2023-03-04T03:42:16;65066.56;;;-1.04;100.00
37132;BME280;23035;50.032;21.978;2023-03-04T03:47:22;65103.22;;;-0.69;100.00
37132;BME280;23035;50.032;21.978;2023-03-04T03:52:26;65110.00;;;-0.65;100.00
37132;BME280;23035;50.032;21.978;2023-03-04T03:57:31;65107.34;;;-0.67;100.00
37132;BME280;23035;50.032;21.978;2023-03-04T04:02:38;65103.31;;;-0.66;100.00
37132;BME280;23035;50.032;21.978;2023-03-04T04:07:45;65095.13;;;-0.79;100.00
37132;BME280;23035;50.032;21.978;2023-03-04T04:12:49;65102.13;;;-0.70;100.00
37132;BME280;23035;50.032;21.978;2023-03-04T04:17:56;65154.44;;;-0.15;100.00
37132;BME280;23035;50.032;21.978;2023-03-04T04:23:00;65171.75;;;-0.03;100.00
37132;BME280;23035;50.032;21.978;2023-03-04T04:28:05;65162.31;;;-0.10;100.00
37132;BME280;23035;50.032;21.978;2023-03-04T04:33:11;65168.03;;;-0.07;100.00
37132;BME280;23035;50.032;21.978;2023-03-04T04:38:15;65163.16;;;-0.14;100.00
37132;BME280;23035;50.032;21.978;2023-03-04T04:43:19;65075.38;;;-0.88;100.00
37132;BME280;23035;50.032;21.978;2023-03-04T04:48:25;65119.03;;;-0.56;100.00
37132;BME280;23035;50.032;21.978;2023-03-04T04:53:30;65116.06;;;-0.54;100.00
37132;BME280;23035;50.032;21.978;2023-03-04T04:58:35;65111.69;;;-0.61;100.00
37132;BME280;23035;50.032;21.978;2023-03-04T05:03:41;65101.59;;;-0.70;100.00
37132;BME280;23035;50.032;21.978;2023-03-04T05:08:45;65117.13;;;-0.53;100.00
37132;BME280;23035;50.032;21.978;2023-03-04T05:13:50;65102.66;;;-0.69;100.00
37132;BME280;23035;50.032;21.978;2023-03-04T05:18:56;65148.56;;;-0.20;100.00
37132;BME280;23035;50.032;21.978;2023-03-04T05:24:00;65166.84;;;-0.10;100.00
37132;BME280;23035;50.032;21.978;2023-03-04T05:29:04;65149.00;;;-0.22;100.00
37132;BME280;23035;50.032;21.978;2023-03-04T05:34:10;65150.50;;;-0.23;100.00
37132;BME280;23035;50.032;21.978;2023-03-04T05:39:15;65140.94;;;-0.33;100.00
37132;BME280;23035;50.032;21.978;2023-03-04T05:44:19;65151.13;;;-0.20;100.00
37132;BME280;23035;50.032;21.978;2023-03-04T05:49:25;65149.22;;;-0.30;100.00
37132;BME280;23035;50.032;21.978;2023-03-04T05:54:29;65184.94;;;0.07;100.00
37132;BME280;23035;50.032;21.978;2023-03-04T05:59:34;65197.38;;;0.24;100.00
37132;BME280;23035;50.032;21.978;2023-03-04T06:04:39;65165.38;;;-0.09;100.00
37132;BME280;23035;50.032;21.978;2023-03-04T06:09:43;65153.69;;;-0.20;100.00
37132;BME280;23035;50.032;21.978;2023-03-04T06:14:48;65144.13;;;-0.30;100.00
37132;BME280;23035;50.032;21.978;2023-03-04T06:19:54;65181.97;;;0.09;100.00
37132;BME280;23035;50.032;21.978;2023-03-04T06:24:58;65153.16;;;-0.21;100.00
37132;BME280;23035;50.032;21.978;2023-03-04T06:30:03;65143.56;;;-0.30;100.00
37132;BME280;23035;50.032;21.978;2023-03-04T06:35:11;65164.44;;;-0.08;100.00
37132;BME280;23035;50.032;21.978;2023-03-04T06:40:19;65187.19;;;0.12;100.00
37132;BME280;23035;50.032;21.978;2023-03-04T06:45:24;65198.34;;;0.22;100.00
37132;BME280;23035;50.032;21.978;2023-03-04T06:50:30;65181.44;;;0.09;100.00
37132;BME280;23035;50.032;21.978;2023-03-04T06:55:34;65181.97;;;0.09;100.00
37132;BME280;23035;50.032;21.978;2023-03-04T07:00:38;65193.66;;;0.20;100.00
37132;BME280;23035;50.032;21.978;2023-03-04T07:05:45;65191.53;;;0.18;100.00
37132;BME280;23035;50.032;21.978;2023-03-04T07:10:49;65205.25;;;0.29;100.00
37132;BME280;23035;50.032;21.978;2023-03-04T07:15:53;65200.47;;;0.24;100.00
37132;BME280;23035;50.032;21.978;2023-03-04T07:20:59;65191.97;;;0.16;100.00
37132;BME280;23035;50.032;21.978;2023-03-04T07:26:04;65191.44;;;0.16;100.00
37132;BME280;23035;50.032;21.978;2023-03-04T07:31:11;65197.06;;;0.28;100.00
37132;BME280;23035;50.032;21.978;2023-03-04T07:36:17;65193.66;;;0.20;100.00
37132;BME280;23035;50.032;21.978;2023-03-04T07:41:24;65251.72;;;0.78;100.00
37132;BME280;23035;50.032;21.978;2023-03-04T07:46:29;65197.28;;;0.21;100.00
37132;BME280;23035;50.032;21.978;2023-03-04T07:51:35;65197.81;;;0.22;100.00
37132;BME280;23035;50.032;21.978;2023-03-04T07:56:40;65190.59;;;0.20;100.00
37132;BME280;23035;50.032;21.978;2023-03-04T08:01:44;65240.47;;;0.65;100.00
37132;BME280;23035;50.032;21.978;2023-03-04T08:06:50;65204.19;;;0.28;100.00
37132;BME280;23035;50.032;21.978;2023-03-04T08:11:54;65189.94;;;0.17;100.00
37132;BME280;23035;50.032;21.978;2023-03-04T08:16:59;65241.97;;;0.64;100.00
37132;BME280;23035;50.032;21.978;2023-03-04T08:22:05;65208.56;;;0.35;100.00
37132;BME280;23035;50.032;21.978;2023-03-04T08:27:10;65220.59;;;0.41;100.00
37132;BME280;23035;50.032;21.978;2023-03-04T08:32:14;65234.63;;;0.60;100.00
37132;BME280;23035;50.032;21.978;2023-03-04T08:37:20;65180.50;;;0.10;100.00
37132;BME280;23035;50.032;21.978;2023-03-04T08:42:25;65184.31;;;0.04;100.00
37132;BME280;23035;50.032;21.978;2023-03-04T08:47:29;65180.69;;;0.03;100.00
37132;BME280;23035;50.032;21.978;2023-03-04T08:52:35;65190.03;;;0.19;100.00
37132;BME280;23035;50.032;21.978;2023-03-04T08:57:40;65237.59;;;0.57;100.00
37132;BME280;23035;50.032;21.978;2023-03-04T09:02:45;65245.34;;;0.72;100.00
37132;BME280;23035;50.032;21.978;2023-03-04T09:07:51;65224.19;;;0.54;100.00
37132;BME280;23035;50.032;21.978;2023-03-04T09:12:57;65248.34;;;0.70;100.00
37132;BME280;23035;50.032;21.978;2023-03-04T09:18:02;65228.53;;;0.49;100.00
37132;BME280;23035;50.032;21.978;2023-03-04T09:23:11;65224.50;;;0.50;100.00
37132;BME280;23035;50.032;21.978;2023-03-04T09:28:17;65245.13;;;0.67;100.00
37132;BME280;23035;50.032;21.978;2023-03-04T09:33:33;65225.34;;;0.46;100.00
37132;BME280;23035;50.032;21.978;2023-03-04T09:38:40;65216.00;;;0.42;100.00
37132;BME280;23035;50.032;21.978;2023-03-04T09:43:57;65253.47;;;0.70;100.00
37132;BME280;23035;50.032;21.978;2023-03-04T09:49:04;65214.72;;;0.36;100.00
37132;BME280;23035;50.032;21.978;2023-03-04T09:54:16;65279.63;;;0.98;100.00
37132;BME280;23035;50.032;21.978;2023-03-04T09:59:24;65219.19;;;0.45;100.00
37132;BME280;23035;50.032;21.978;2023-03-04T10:04:35;65251.09;;;0.75;100.00
37132;BME280;23035;50.032;21.978;2023-03-04T10:09:46;65245.34;;;0.72;100.00
37132;BME280;23035;50.032;21.978;2023-03-04T10:14:57;65229.81;;;0.55;100.00
37132;BME280;23035;50.032;21.978;2023-03-04T10:20:15;65251.63;;;0.76;100.00
37132;BME280;23035;50.032;21.978;2023-03-04T10:25:26;65249.50;;;0.74;100.00
37132;BME280;23035;50.032;21.978;2023-03-04T10:30:38;65257.38;;;0.79;100.00
37132;BME280;23035;50.032;21.978;2023-03-04T10:35:45;65256.97;;;0.81;100.00
37132;BME280;23035;50.032;21.978;2023-03-04T10:40:51;65247.91;;;0.72;100.00
37132;BME280;23035;50.032;21.978;2023-03-04T10:45:58;65240.47;;;0.65;100.00
37132;BME280;23035;50.032;21.978;2023-03-04T10:51:12;65221.13;;;0.42;100.00
37132;BME280;23035;50.032;21.978;2023-03-04T10:56:37;65259.09;;;0.83;100.00
37132;BME280;23035;50.032;21.978;2023-03-04T11:01:49;65262.06;;;0.81;100.00
37132;BME280;23035;50.032;21.978;2023-03-04T11:07:00;65252.69;;;0.77;100.00
37132;BME280;23035;50.032;21.978;2023-03-04T11:12:10;65227.69;;;0.53;100.00
37132;BME280;23035;50.032;21.978;2023-03-04T11:17:20;65204.31;;;0.31;100.00
37132;BME280;23035;50.032;21.978;2023-03-04T11:22:28;65206.34;;;0.30;100.00
37132;BME280;23035;50.032;21.978;2023-03-04T11:27:40;65223.03;;;0.51;100.00
37132;BME280;23035;50.032;21.978;2023-03-04T11:32:48;65221.75;;;0.45;100.00
37132;BME280;23035;50.032;21.978;2023-03-04T11:38:01;65192.59;;;0.19;100.00
37132;BME280;23035;50.032;21.978;2023-03-04T11:43:14;65206.44;;;0.33;100.00
37132;BME280;23035;50.032;21.978;2023-03-04T11:48:31;65185.03;;;0.10;100.00
37132;BME280;23035;50.032;21.978;2023-03-04T11:53:46;65208.97;;;0.33;100.00
37132;BME280;23035;50.032;21.978;2023-03-04T12:05:04;65241.53;;;0.66;100.00
37132;BME280;23035;50.032;21.978;2023-03-04T12:10:22;65228.75;;;0.54;100.00
37132;BME280;23035;50.032;21.978;2023-03-04T12:15:36;65238.44;;;0.66;100.00
37132;BME280;23035;50.032;21.978;2023-03-04T12:20:56;65251.44;;;0.71;100.00
37132;BME280;23035;50.032;21.978;2023-03-04T12:26:09;65244.72;;;0.69;100.00
37132;BME280;23035;50.032;21.978;2023-03-04T12:31:38;65259.50;;;0.81;100.00
37132;BME280;23035;50.032;21.978;2023-03-04T12:36:49;65246.19;;;0.68;100.00
37132;BME280;23035;50.032;21.978;2023-03-04T12:42:05;65230.47;;;0.58;100.00
37132;BME280;23035;50.032;21.978;2023-03-04T12:47:23;65290.25;;;1.08;100.00
37132;BME280;23035;50.032;21.978;2023-03-04T12:52:41;65263.44;;;0.90;100.00
37132;BME280;23035;50.032;21.978;2023-03-04T12:57:47;65294.41;;;1.22;100.00
37132;BME280;23035;50.032;21.978;2023-03-04T13:03:01;65310.69;;;1.32;100.00
37132;BME280;23035;50.032;21.978;2023-03-04T13:08:19;65279.19;;;1.00;100.00
37132;BME280;23035;50.032;21.978;2023-03-04T13:13:38;65273.88;;;0.95;100.00
37132;BME280;23035;50.032;21.978;2023-03-04T13:18:45;65304.22;;;1.24;100.00
37132;BME280;23035;50.032;21.978;2023-03-04T13:23:50;65300.59;;;1.23;100.00
37132;BME280;23035;50.032;21.978;2023-03-04T13:29:32;65241.53;;;0.66;100.00
37132;BME280;23035;50.032;21.978;2023-03-04T13:34:49;65301.22;;;1.26;100.00
37132;BME280;23035;50.032;21.978;2023-03-04T13:40:28;65276.53;;;0.97;100.00
37132;BME280;23035;50.032;21.978;2023-03-04T13:45:36;65283.03;;;1.06;100.00
37132;BME280;23035;50.032;21.978;2023-03-04T13:50:47;65299.00;;;1.21;100.00
37132;BME280;23035;50.032;21.978;2023-03-04T13:56:04;65277.06;;;0.98;100.00
37132;BME280;23035;50.032;21.978;2023-03-04T14:01:23;65267.59;;;0.91;100.00
37132;BME280;23035;50.032;21.978;2023-03-04T14:06:30;65249.59;;;0.76;100.00
37132;BME280;23035;50.032;21.978;2023-03-04T14:11:38;65281.63;;;0.97;100.00
37132;BME280;23035;50.032;21.978;2023-03-04T14:16:46;65251.00;;;0.73;100.00
37132;BME280;23035;50.032;21.978;2023-03-04T14:21:54;65272.38;;;0.96;100.00
37132;BME280;23035;50.032;21.978;2023-03-04T14:27:08;65311.22;;;1.33;100.00
37132;BME280;23035;50.032;21.978;2023-03-04T14:32:14;65308.56;;;1.30;100.00
37132;BME280;23035;50.032;21.978;2023-03-04T14:37:25;65296.75;;;1.17;100.00
37132;BME280;23035;50.032;21.978;2023-03-04T14:42:35;65296.75;;;1.17;100.00
37132;BME280;23035;50.032;21.978;2023-03-04T14:47:45;65310.69;;;1.32;100.00
37132;BME280;23035;50.032;21.978;2023-03-04T14:53:04;65321.88;;;1.43;100.00
37132;BME280;23035;50.032;21.978;2023-03-04T14:58:21;65335.50;;;1.51;100.00
37132;BME280;23035;50.032;21.978;2023-03-04T15:03:28;65280.47;;;1.06;100.00
37132;BME280;23035;50.032;21.978;2023-03-04T15:08:36;65309.09;;;1.31;100.00
37132;BME280;23035;50.032;21.978;2023-03-04T15:13:43;65313.44;;;1.37;100.00
37132;BME280;23035;50.032;21.978;2023-03-04T15:19:24;65316.97;;;1.36;100.00
37132;BME280;23035;50.032;21.978;2023-03-04T15:24:33;65326.03;;;1.44;100.00
37132;BME280;23035;50.032;21.978;2023-03-04T15:29:38;65313.56;;;1.40;100.00
37132;BME280;23035;50.032;21.978;2023-03-04T15:34:45;65311.66;;;1.31;100.00
37132;BME280;23035;50.032;21.978;2023-03-04T15:39:52;65276.44;;;0.95;100.00
37132;BME280;23035;50.032;21.978;2023-03-04T15:44:56;65266.53;;;0.90;100.00
37132;BME280;23035;50.032;21.978;2023-03-04T15:50:01;65259.19;;;0.85;100.00
37132;BME280;23035;50.032;21.978;2023-03-04T15:55:11;65351.16;;;1.71;100.00
37132;BME280;23035;50.032;21.978;2023-03-04T16:00:17;65316.44;;;1.35;100.00
37132;BME280;23035;50.032;21.978;2023-03-04T16:05:23;65319.13;;;1.38;100.00
37132;BME280;23035;50.032;21.978;2023-03-04T16:10:29;65333.06;;;1.54;100.00
37132;BME280;23035;50.032;21.978;2023-03-04T16:15:35;65329.44;;;1.53;100.00
37132;BME280;23035;50.032;21.978;2023-03-04T16:20:44;65304.63;;;1.22;100.00
37132;BME280;23035;50.032;21.978;2023-03-04T16:25:53;65332.00;;;1.53;100.00
37132;BME280;23035;50.032;21.978;2023-03-04T16:30:58;65353.09;;;1.68;100.00
37132;BME280;23035;50.032;21.978;2023-03-04T16:36:03;65344.31;;;1.67;100.00
37132;BME280;23035;50.032;21.978;2023-03-04T16:41:16;65338.78;;;1.57;100.00
37132;BME280;23035;50.032;21.978;2023-03-04T16:46:23;65420.81;;;2.35;100.00
37132;BME280;23035;50.032;21.978;2023-03-04T16:51:34;65350.72;;;1.73;100.00
37132;BME280;23035;50.032;21.978;2023-03-04T16:56:41;65359.34;;;1.84;100.00
37132;BME280;23035;50.032;21.978;2023-03-04T17:01:46;65378.84;;;1.97;100.00
37132;BME280;23035;50.032;21.978;2023-03-04T17:06:50;65380.00;;;2.01;100.00
37132;BME280;23035;50.032;21.978;2023-03-04T17:11:56;65401.22;;;2.19;100.00
37132;BME280;23035;50.032;21.978;2023-03-04T17:17:03;65310.16;;;1.32;100.00
37132;BME280;23035;50.032;21.978;2023-03-04T17:22:08;65318.25;;;1.42;100.00
37132;BME280;23035;50.032;21.978;2023-03-04T17:27:14;65340.81;;;1.56;100.00
37132;BME280;23035;50.032;21.978;2023-03-04T17:32:19;65348.28;;;1.63;100.00
37132;BME280;23035;50.032;21.978;2023-03-04T17:37:24;65322.31;;;1.41;100.00
37132;BME280;23035;50.032;21.978;2023-03-04T17:42:42;65330.50;;;1.54;100.00
37132;BME280;23035;50.032;21.978;2023-03-04T17:47:56;65287.28;;;1.10;100.00
37132;BME280;23035;50.032;21.978;2023-03-04T17:53:01;65311.44;;;1.26;100.00
37132;BME280;23035;50.032;21.978;2023-03-04T17:58:07;65311.75;;;1.33;100.00
37132;BME280;23035;50.032;21.978;2023-03-04T18:03:13;65361.81;;;1.81;100.00
37132;BME280;23035;50.032;21.978;2023-03-04T18:08:18;65302.09;;;1.22;100.00
37132;BME280;23035;50.032;21.978;2023-03-04T18:13:27;65326.78;;;1.50;100.00
37132;BME280;23035;50.032;21.978;2023-03-04T18:18:33;65342.63;;;1.63;100.00
37132;BME280;23035;50.032;21.978;2023-03-04T18:23:38;65375.09;;;1.94;100.00
37132;BME280;23035;50.032;21.978;2023-03-04T18:28:45;65326.78;;;1.50;100.00
37132;BME280;23035;50.032;21.978;2023-03-04T18:33:53;65335.06;;;1.53;100.00
37132;BME280;23035;50.032;21.978;2023-03-04T18:38:58;65373.50;;;1.92;100.00
37132;BME280;23035;50.032;21.978;2023-03-04T18:44:07;65374.47;;;1.91;100.00
37132;BME280;23035;50.032;21.978;2023-03-04T18:49:17;65392.69;;;2.11;100.00
37132;BME280;23035;50.032;21.978;2023-03-04T18:54:26;65387.34;;;2.06;100.00
37132;BME280;23035;50.032;21.978;2023-03-04T18:59:37;65387.88;;;2.06;100.00
37132;BME280;23035;50.032;21.978;2023-03-04T19:04:45;65373.94;;;1.90;100.00
37132;BME280;23035;50.032;21.978;2023-03-04T19:09:50;65380.97;;;1.99;100.00
37132;BME280;23035;50.032;21.978;2023-03-04T19:14:56;65416.66;;;2.34;100.00
37132;BME280;23035;50.032;21.978;2023-03-04T19:20:01;65387.47;;;2.08;100.00
37132;BME280;23035;50.032;21.978;2023-03-04T19:25:07;65379.91;;;1.98;100.00
37132;BME280;23035;50.032;21.978;2023-03-04T19:30:13;65367.56;;;1.84;100.00
37132;BME280;23035;50.032;21.978;2023-03-04T19:35:18;65360.75;;;1.80;100.00
37132;BME280;23035;50.032;21.978;2023-03-04T19:40:23;65385.66;;;2.01;100.00
37132;BME280;23035;50.032;21.978;2023-03-04T19:45:31;65301.75;;;1.26;100.00
37132;BME280;23035;50.032;21.978;2023-03-04T19:50:36;65251.31;;;0.80;100.00
37132;BME280;23035;50.032;21.978;2023-03-04T19:55:42;65215.16;;;0.34;100.00
37132;BME280;23035;50.032;21.978;2023-03-04T20:00:48;65297.41;;;1.20;100.00
37132;BME280;23035;50.032;21.978;2023-03-04T20:06:01;65295.25;;;1.18;100.00
37132;BME280;23035;50.032;21.978;2023-03-04T20:11:07;65272.81;;;0.94;100.00
37132;BME280;23035;50.032;21.978;2023-03-04T20:16:16;65288.13;;;1.06;100.00
37132;BME280;23035;50.032;21.978;2023-03-04T20:21:21;65256.84;;;0.78;100.00
37132;BME280;23035;50.032;21.978;2023-03-04T20:26:27;65275.59;;;0.99;100.00
37132;BME280;23035;50.032;21.978;2023-03-04T20:31:37;65297.59;;;1.25;100.00
37132;BME280;23035;50.032;21.978;2023-03-04T20:36:42;65237.19;;;0.60;100.00
37132;BME280;23035;50.032;21.978;2023-03-04T20:41:47;65241.44;;;0.64;100.00
37132;BME280;23035;50.032;21.978;2023-03-04T20:46:53;65250.13;;;0.77;100.00
37132;BME280;23035;50.032;21.978;2023-03-04T20:52:00;65259.19;;;0.85;100.00
37132;BME280;23035;50.032;21.978;2023-03-04T20:57:09;65255.91;;;0.80;100.00
37132;BME280;23035;50.032;21.978;2023-03-04T21:02:15;65243.00;;;0.65;100.00
37132;BME280;23035;50.032;21.978;2023-03-04T21:07:22;65271.31;;;0.95;100.00
37132;BME280;23035;50.032;21.978;2023-03-04T21:12:28;65242.59;;;0.67;100.00
37132;BME280;23035;50.032;21.978;2023-03-04T21:17:34;65299.44;;;1.19;100.00
37132;BME280;23035;50.032;21.978;2023-03-04T21:22:39;65319.22;;;1.40;100.00
37132;BME280;23035;50.032;21.978;2023-03-04T21:27:44;65312.28;;;1.34;100.00
37132;BME280;23035;50.032;21.978;2023-03-04T21:32:50;65294.00;;;1.11;100.00
37132;BME280;23035;50.032;21.978;2023-03-04T21:37:56;65341.34;;;1.57;100.00
37132;BME280;23035;50.032;21.978;2023-03-04T21:43:07;65301.66;;;1.24;100.00
37132;BME280;23035;50.032;21.978;2023-03-04T21:48:13;65263.22;;;0.84;100.00
37132;BME280;23035;50.032;21.978;2023-03-04T21:53:18;65247.06;;;0.64;100.00
37132;BME280;23035;50.032;21.978;2023-03-04T21:58:25;65342.84;;;1.68;100.00
37132;BME280;23035;50.032;21.978;2023-03-04T22:03:35;65230.78;;;0.53;100.00
37132;BME280;23035;50.032;21.978;2023-03-04T22:08:40;65302.19;;;1.24;100.00
37132;BME280;23035;50.032;21.978;2023-03-04T22:13:45;65242.59;;;0.67;100.00
37132;BME280;23035;50.032;21.978;2023-03-04T22:18:52;65262.81;;;0.86;100.00
37132;BME280;23035;50.032;21.978;2023-03-04T22:23:57;65240.38;;;0.63;100.00
37132;BME280;23035;50.032;21.978;2023-03-04T22:29:03;65229.72;;;0.52;100.00
37132;BME280;23035;50.032;21.978;2023-03-04T22:34:11;65291.53;;;1.14;100.00
37132;BME280;23035;50.032;21.978;2023-03-04T22:39:17;65321.34;;;1.42;100.00
37132;BME280;23035;50.032;21.978;2023-03-04T22:44:24;65262.28;;;0.86;100.00
37132;BME280;23035;50.032;21.978;2023-03-04T22:49:30;65299.84;;;1.29;100.00
37132;BME280;23035;50.032;21.978;2023-03-04T22:54:35;65272.38;;;0.96;100.00
37132;BME280;23035;50.032;21.978;2023-03-04T22:59:40;65172.50;;;0.03;100.00
37132;BME280;23035;50.032;21.978;2023-03-04T23:04:46;65170.28;;;-0.02;100.00
37132;BME280;23035;50.032;21.978;2023-03-04T23:09:50;65144.66;;;-0.29;100.00
37132;BME280;23035;50.032;21.978;2023-03-04T23:14:55;65138.91;;;-0.32;100.00
37132;BME280;23035;50.032;21.978;2023-03-04T23:20:03;65183.03;;;0.10;100.00
37132;BME280;23035;50.032;21.978;2023-03-04T23:25:08;65247.06;;;0.76;100.00
37132;BME280;23035;50.032;21.978;2023-03-04T23:30:14;65234.94;;;0.55;100.00
37132;BME280;23035;50.032;21.978;2023-03-04T23:35:20;65187.28;;;0.14;100.00
37132;BME280;23035;50.032;21.978;2023-03-04T23:40:25;65189.84;;;0.14;100.00
37132;BME280;23035;50.032;21.978;2023-03-04T23:45:30;65214.28;;;0.38;100.00
37132;BME280;23035;50.032;21.978;2023-03-04T23:50:36;65144.75;;;-0.26;100.00
37132;BME280;23035;50.032;21.978;2023-03-04T23:55:40;65177.09;;;0.02;100.00
